aviador You're here:

LFKF Decoded Metar

FIGARI in CORSE ISL.
Report Time2017-11-20 22:30:00
UTC Time2017-11-20 22:58:59
Flight Rules vfr VFR
Wind230° at 08 kt
W.Decomp.*RWY 23: 8.0 kt HW 0.1 kt LCW
W.Rank230° ranks 4
Current wind is below 230° avg. (9.9)
Visibility9999 m
Phenomena:N/A
Clouds:Overcast 044 Hf
Expected CloudBase > 400 ft AGL from Temp-Dew spread
Ceiling4,400 ft
Temp09°C (ISA -6)
Dew Point08°C (94% RH)
AAT5.7°C
QNH1020 hPa
Density Alt-719 ft
Elevation75 ft
Report Wrong Elevation
Raw Report
LFKF 202230Z AUTO 23008KT 9999 OVC044 09/08 Q1020=

Extra information for LFKF:More info

Metar Taf Metar & Taf Last 4 Metars F.Rules Stats Wind Profile Meteogram Temp Stats Airport Information Weather charts Add Link Nearby VenuesMetar ALERT Operation Metar Decoded Social comments